x

Buoy F01 - West Penobscot Bay (44033) Wave Buoy

1:04 - Sun 11th Dec 2016 All times are EST. -5 hours from GMT.

  • Sig Wave height 1.0ft
  • Peak Period 2s
  • Wind
    13mph, 18mph gusts
  • Sea Temp 45°f
  • Ar Temp 20°f
  • Sea Pressure 1029mb
  • Buoy F01 - West Penobscot Bay
  • Buoy F01 - West Penobscot Bay

More Historic Weather Station data

Upgrade to MSW Pro to gain access to the past 30 days of data for over 8000 Wavebouys and Weather Stations around the globe.

Join Pro

Comparision Forecast

View Surf forecast
   
Dom 12/11 1:04 1ft 2s 13 18 mph 1029mb 45f 20f
12:04 1ft 3s 13 20 mph 1028.6mb 46f 21f
Sáb 12/10 11:04 1.6ft 3s 16 20 mph 1028.3mb 46f 22f
10:04 1.6ft 3s 18 25 mph 1027.6mb 46f 22f
9:04 1.3ft 3s 22 27 mph 1026.9mb 46f 23f
8:04 1.3ft 3s 18 22 mph 1026.4mb 46f 23f
7:04 1ft 3s 16 18 mph 1026.2mb 46f 23f
6:04 1.3ft 3s 16 20 mph 1025.3mb 46f 23f
5:04 1.3ft 3s 16 22 mph 1024.5mb 46f 23f
4:04 1.6ft 3s 18 22 mph 1023.6mb 46f 23f
3:04 1.3ft 3s 20 25 mph 1022.7mb 46f 24f
2:04 1.6ft 3s 20 25 mph 1022.1mb 46f 24f
1:04 1.6ft 3s 20 25 mph 1021.6mb 46f 24f
12:04 1.6ft 3s 18 22 mph 1021.7mb 46f 23f
11:04 1.6ft 3s 18 25 mph 1022.4mb 46f 22f
10:04 1.3ft 3s 18 22 mph 1023.2mb 46f 20f
9:04 1ft  -  13 18 mph 1022.8mb 46f 20f
8:04 0.7ft  -  11 16 mph 1022.2mb 46f 19f
7:04 1ft 3s 11 13 mph 1021.7mb 46f 19f
6:04 1ft 3s 11 16 mph 1021mb 46f 19f
5:04 1.3ft 3s 16 20 mph 1020.5mb 46f 19f
4:04 2ft 4s 18 25 mph 1020.3mb 46f 20f
3:04 1.6ft 3s 20 25 mph 1019.4mb 46f 21f
2:04 2ft 3s 25 31 mph 1018.9mb 46f 23f
1:04 1.6ft 2s 20 27 mph 1018.6mb 46f 25f
12:04 1ft 2s 18 22 mph 1017.6mb 46f 26f
Sex 12/09 11:04 1ft 2s 18 20 mph 1017mb 46f 26f
10:04 1.3ft 3s 13 16 mph 1017mb 46f 27f
9:04 1.6ft 3s 18 20 mph 1016mb 46f 28f
8:04 1.3ft 3s 20 25 mph 1015.5mb 46f 29f
7:04 1.6ft 3s 18 22 mph 1015.2mb 46f 29f
6:04 2ft 3s 20 29 mph 1014.3mb 46f 29f
5:04 2.5ft 3s 20 25 mph 1013.4mb 46f 30f
4:04 2ft 3s 22 27 mph 1012.4mb 46f 31f
3:04 2.5ft 3s 25 29 mph 1011.2mb 46f 32f
2:04 2.5ft 3s 22 27 mph 1010.2mb 46f 32f
1:04 2ft 3s 25 31 mph 1009.8mb 46f 32f
12:04 2ft 3s 25 31 mph 1009.4mb 45f 32f
11:04 1.6ft 3s 20 27 mph 1009.7mb 45f 31f
10:04 2ft 6s 20 25 mph 1009.7mb 46f 31f
9:04 2ft 6s 22 27 mph 1009.2mb 46f 31f
8:04 2ft 6s 18 22 mph 1008.6mb 46f 31f
7:04 1.3ft 3s 18 22 mph 1007.5mb 46f 32f
6:04 1.3ft 3s 25 31 mph 1006.5mb 46f 33f
5:04 2ft 6s 22 25 mph 1005.3mb 45f 35f
4:04 1ft 2s 20 25 mph 1005.1mb 45f 34f
3:04 1.6ft 5s 18 25 mph 1005.1mb 45f 34f
2:04 1.3ft 5s 16 20 mph 1005.4mb 45f 34f
1:04 1.3ft 5s 16 20 mph 1005.2mb 45f 35f
12:04 1.3ft 5s 16 20 mph 1005.2mb 45f 35f
Qui 12/08 11:04 1.6ft 11s 13 16 mph 1005.6mb 45f 36f
10:04 1.6ft 8s 13 16 mph 1005.7mb 45f 36f
9:04 1.6ft 6s 11 13 mph 1005.9mb 45f 35f
8:04 1.6ft 5s 11 13 mph 1006mb 45f 36f
7:04 1.6ft 8s 22 27 mph 1006mb 46f 37f
6:04 2ft 8s 13 16 mph 1005.4mb 46f 39f
5:04 1.6ft 6s 11 16 mph 1005.3mb 45f 40f
4:04 1.6ft 8s 9 11 mph 1005.3mb 45f 40f
3:04 1.3ft 4s 11 16 mph 1005.4mb 45f 41f
2:04 1.6ft 8s 11 13 mph 1005.9mb 45f 41f
1:04 1.6ft 8s 11 13 mph 1006.8mb 46f 41f
12:04 1ft 5s 13 16 mph 1007.9mb 46f 40f
11:04 1.3ft 8s 11 13 mph 1009.4mb 46f 39f
10:04 1ft 5s 9 11 mph 1010.6mb 46f 38f
9:04 1.3ft 8s 4 7 mph 1011mb 45f 40f
8:04 1ft 11s 2
mph
1011.1mb 45f 41f
7:04 1.3ft 8s 4
mph
1011.4mb 45f 38f
6:04 1.3ft 11s 4 7 mph 1011.6mb 45f 38f
5:04 1.3ft 11s 7
mph
1011.9mb 45f 37f
4:04 1.3ft 8s 11 13 mph 1012.4mb 45f 35f
3:04 1.3ft 11s 9 11 mph 1012.5mb 45f 35f
2:04 1.3ft 8s 9 11 mph 1013.1mb 45f 34f
1:04 1.3ft 8s 13 16 mph 1012.7mb 46f 35f
12:04 1.3ft 8s 13 18 mph 1013.1mb 46f 37f
Qua 12/07 11:04 1ft  -  13 18 mph 1014.1mb 46f 37f
10:04 0.7ft  -  11 13 mph 1014.1mb 46f 37f
9:04 1ft 11s 7
mph
1014.3mb 47f 40f
8:04 0.7ft  -  7 9 mph 1014.3mb 47f 40f
7:04 1ft 11s 4 7 mph 1014.5mb 47f 39f
6:04 1ft 11s 4 7 mph 1014.4mb 47f 38f
5:04  -   -  4 7 mph 1014.1mb 46f 38f
4:04 1ft 8s 4 7 mph 1013.8mb 46f 37f
3:04 0.7ft  -  4 7 mph 1013.8mb 46f 37f
2:04 1.3ft 8s 4 7 mph 1013.6mb 46f 35f
1:04 1.3ft 11s 7 9 mph 1014mb 47f 34f
12:04 1ft 8s 9 11 mph 1015mb 45f 33f
11:04 1.3ft 11s 7 9 mph 1015.5mb 46f 33f
10:04 1ft 8s 7 9 mph 1016.3mb 45f 32f
9:04 1.3ft 11s 7 11 mph 1016.3mb 45f 33f
8:04 1.3ft 11s 9 11 mph 1015.4mb 47f 33f